Terminal Aerodrome Forecast
Issued by NWS

Home | Current Version | Previous Version | Text Only | Print | Product List | Glossary On
Versions: 1 2 3 4 5 6 7 8 9 10 11 12 13 14 15 16 17 18 19 20 21 22 23 24 25 26 27
000
FTUS42 KCAE 301139
TAFOGB
TAF
KOGB 301139Z 3012/3112 VRB04KT 6SM BR SCT002 SCT150
      TEMPO 3012/3014 1/2SM FG BKN002
     FM301500 10007KT P6SM SCT050
     FM310000 VRB03KT P6SM SCT100 BKN250=

USA.gov is the U.S. government's official web portal to all federal, state and local government web resources and services.